sensor_id;sensor_type;location;lat;lon;timestamp;pressure;altitude;pressure_sealevel;temperature;humidity
28927;BME280;16038;47.692;9.400;2023-03-13T00:02:20;96365.00;;;4.59;100.00
28927;BME280;16038;47.692;9.400;2023-03-13T00:04:45;96363.31;;;4.67;100.00
28927;BME280;16038;47.692;9.400;2023-03-13T00:07:10;96360.47;;;4.64;100.00
28927;BME280;16038;47.692;9.400;2023-03-13T00:09:37;96360.03;;;4.62;100.00
28927;BME280;16038;47.692;9.400;2023-03-13T00:12:02;96358.56;;;4.64;100.00
28927;BME280;16038;47.692;9.400;2023-03-13T00:14:28;96356.41;;;4.57;100.00
28927;BME280;16038;47.692;9.400;2023-03-13T00:16:53;96356.16;;;4.63;100.00
28927;BME280;16038;47.692;9.400;2023-03-13T00:19:21;96354.03;;;4.56;100.00
28927;BME280;16038;47.692;9.400;2023-03-13T00:21:46;96361.03;;;4.57;100.00
28927;BME280;16038;47.692;9.400;2023-03-13T00:24:11;96353.81;;;4.61;100.00
28927;BME280;16038;47.692;9.400;2023-03-13T00:26:37;96357.31;;;4.62;100.00
28927;BME280;16038;47.692;9.400;2023-03-13T00:29:02;96361.28;;;4.64;100.00
28927;BME280;16038;47.692;9.400;2023-03-13T00:31:28;96344.88;;;4.60;100.00
28927;BME280;16038;47.692;9.400;2023-03-13T00:33:56;96344.50;;;4.50;100.00
28927;BME280;16038;47.692;9.400;2023-03-13T00:36:22;96343.16;;;4.44;100.00
28927;BME280;16038;47.692;9.400;2023-03-13T00:38:49;96338.50;;;4.44;100.00
28927;BME280;16038;47.692;9.400;2023-03-13T00:41:16;96338.53;;;4.56;100.00
28927;BME280;16038;47.692;9.400;2023-03-13T00:43:42;96332.53;;;4.51;100.00
28927;BME280;16038;47.692;9.400;2023-03-13T00:46:08;96332.91;;;4.62;100.00
28927;BME280;16038;47.692;9.400;2023-03-13T00:48:34;96336.53;;;4.66;100.00
28927;BME280;16038;47.692;9.400;2023-03-13T00:51:00;96333.59;;;4.71;100.00
28927;BME280;16038;47.692;9.400;2023-03-13T00:53:25;96339.47;;;4.73;100.00
28927;BME280;16038;47.692;9.400;2023-03-13T00:55:51;96335.97;;;4.72;100.00
28927;BME280;16038;47.692;9.400;2023-03-13T00:58:17;96346.72;;;4.69;100.00
28927;BME280;16038;47.692;9.400;2023-03-13T01:00:43;96337.09;;;4.71;100.00
28927;BME280;16038;47.692;9.400;2023-03-13T01:03:08;96337.53;;;4.73;100.00
28927;BME280;16038;47.692;9.400;2023-03-13T01:05:33;96335.75;;;4.77;100.00
28927;BME280;16038;47.692;9.400;2023-03-13T01:07:59;96324.22;;;4.68;100.00
28927;BME280;16038;47.692;9.400;2023-03-13T01:10:24;96325.00;;;4.69;100.00
28927;BME280;16038;47.692;9.400;2023-03-13T01:12:49;96317.31;;;4.71;100.00
28927;BME280;16038;47.692;9.400;2023-03-13T01:15:14;96318.41;;;4.45;100.00
28927;BME280;16038;47.692;9.400;2023-03-13T01:17:42;96323.09;;;4.24;100.00
28927;BME280;16038;47.692;9.400;2023-03-13T01:20:07;96320.28;;;4.20;100.00
28927;BME280;16038;47.692;9.400;2023-03-13T01:22:33;96317.94;;;4.31;100.00
28927;BME280;16038;47.692;9.400;2023-03-13T01:24:59;96313.88;;;4.37;100.00
28927;BME280;16038;47.692;9.400;2023-03-13T01:27:24;96317.28;;;4.46;100.00
28927;BME280;16038;47.692;9.400;2023-03-13T01:29:50;96315.28;;;4.68;100.00
28927;BME280;16038;47.692;9.400;2023-03-13T01:32:15;96322.75;;;4.71;100.00
28927;BME280;16038;47.692;9.400;2023-03-13T01:34:40;96322.75;;;4.71;100.00
28927;BME280;16038;47.692;9.400;2023-03-13T01:37:05;96318.09;;;4.71;100.00
28927;BME280;16038;47.692;9.400;2023-03-13T01:39:31;96316.19;;;4.72;100.00
28927;BME280;16038;47.692;9.400;2023-03-13T01:41:56;96320.94;;;4.75;100.00
28927;BME280;16038;47.692;9.400;2023-03-13T01:44:23;96319.59;;;4.81;100.00
28927;BME280;16038;47.692;9.400;2023-03-13T01:46:48;96312.81;;;4.87;100.00
28927;BME280;16038;47.692;9.400;2023-03-13T01:49:20;96310.31;;;4.94;100.00
28927;BME280;16038;47.692;9.400;2023-03-13T01:51:54;96303.41;;;5.09;100.00
28927;BME280;16038;47.692;9.400;2023-03-13T01:54:23;96304.00;;;5.15;100.00
28927;BME280;16038;47.692;9.400;2023-03-13T01:59:16;96301.16;;;5.11;100.00
28927;BME280;16038;47.692;9.400;2023-03-13T02:01:43;96300.47;;;5.14;100.00
28927;BME280;16038;47.692;9.400;2023-03-13T02:04:09;96290.66;;;5.10;100.00
28927;BME280;16038;47.692;9.400;2023-03-13T02:06:36;96281.69;;;5.09;100.00
28927;BME280;16038;47.692;9.400;2023-03-13T02:09:03;96283.84;;;5.04;100.00
28927;BME280;16038;47.692;9.400;2023-03-13T02:11:34;96277.19;;;5.01;100.00
28927;BME280;16038;47.692;9.400;2023-03-13T02:14:01;96280.69;;;5.02;100.00
28927;BME280;16038;47.692;9.400;2023-03-13T02:16:28;96280.47;;;5.07;100.00
28927;BME280;16038;47.692;9.400;2023-03-13T02:18:54;96278.19;;;5.09;100.00
28927;BME280;16038;47.692;9.400;2023-03-13T02:21:35;96277.19;;;5.13;100.00
28927;BME280;16038;47.692;9.400;2023-03-13T02:24:07;96270.72;;;5.18;100.00
28927;BME280;16038;47.692;9.400;2023-03-13T02:26:34;96272.75;;;5.21;100.00
28927;BME280;16038;47.692;9.400;2023-03-13T02:28:59;96268.22;;;5.25;100.00
28927;BME280;16038;47.692;9.400;2023-03-13T02:31:25;96266.97;;;5.23;100.00
28927;BME280;16038;47.692;9.400;2023-03-13T02:33:51;96263.47;;;5.22;100.00
28927;BME280;16038;47.692;9.400;2023-03-13T02:36:17;96261.88;;;5.21;100.00
28927;BME280;16038;47.692;9.400;2023-03-13T02:38:45;96261.56;;;5.10;100.00
28927;BME280;16038;47.692;9.400;2023-03-13T02:41:12;96263.28;;;5.15;100.00
28927;BME280;16038;47.692;9.400;2023-03-13T02:43:38;96269.16;;;5.17;100.00
28927;BME280;16038;47.692;9.400;2023-03-13T02:48:37;96249.94;;;5.10;100.00
28927;BME280;16038;47.692;9.400;2023-03-13T02:51:04;96249.47;;;5.08;100.00
28927;BME280;16038;47.692;9.400;2023-03-13T02:53:30;96243.78;;;5.13;100.00
28927;BME280;16038;47.692;9.400;2023-03-13T02:55:55;96244.16;;;5.11;100.00
28927;BME280;16038;47.692;9.400;2023-03-13T02:58:22;96231.44;;;5.28;100.00
28927;BME280;16038;47.692;9.400;2023-03-13T03:00:47;96221.66;;;5.51;100.00
28927;BME280;16038;47.692;9.400;2023-03-13T03:03:13;96218.94;;;5.51;100.00
28927;BME280;16038;47.692;9.400;2023-03-13T03:05:38;96230.03;;;5.74;100.00
28927;BME280;16038;47.692;9.400;2023-03-13T03:08:03;96222.50;;;5.96;100.00
28927;BME280;16038;47.692;9.400;2023-03-13T03:10:29;96223.72;;;5.99;100.00
28927;BME280;16038;47.692;9.400;2023-03-13T03:12:54;96222.00;;;5.78;100.00
28927;BME280;16038;47.692;9.400;2023-03-13T03:15:19;96220.53;;;5.68;100.00
28927;BME280;16038;47.692;9.400;2023-03-13T03:17:45;96223.94;;;5.65;100.00
28927;BME280;16038;47.692;9.400;2023-03-13T03:20:10;96211.84;;;5.63;100.00
28927;BME280;16038;47.692;9.400;2023-03-13T03:22:36;96209.91;;;5.63;100.00
28927;BME280;16038;47.692;9.400;2023-03-13T03:25:02;96209.59;;;5.65;100.00
28927;BME280;16038;47.692;9.400;2023-03-13T03:27:28;96217.63;;;5.61;100.00
28927;BME280;16038;47.692;9.400;2023-03-13T03:29:54;96208.91;;;5.68;100.00
28927;BME280;16038;47.692;9.400;2023-03-13T03:32:19;96201.91;;;5.83;100.00
28927;BME280;16038;47.692;9.400;2023-03-13T03:34:45;96198.84;;;5.84;100.00
28927;BME280;16038;47.692;9.400;2023-03-13T03:37:10;96204.63;;;6.11;100.00
28927;BME280;16038;47.692;9.400;2023-03-13T03:39:43;96207.41;;;5.99;100.00
28927;BME280;16038;47.692;9.400;2023-03-13T03:42:09;96212.63;;;5.91;100.00
28927;BME280;16038;47.692;9.400;2023-03-13T03:44:34;96208.22;;;5.87;100.00
28927;BME280;16038;47.692;9.400;2023-03-13T03:46:59;96204.69;;;5.70;100.00
28927;BME280;16038;47.692;9.400;2023-03-13T03:49:24;96194.06;;;5.65;100.00
28927;BME280;16038;47.692;9.400;2023-03-13T03:51:50;96187.75;;;5.61;100.00
28927;BME280;16038;47.692;9.400;2023-03-13T03:54:15;96184.59;;;5.59;100.00
28927;BME280;16038;47.692;9.400;2023-03-13T03:56:40;96184.44;;;5.68;100.00
28927;BME280;16038;47.692;9.400;2023-03-13T03:59:06;96176.97;;;5.65;100.00
28927;BME280;16038;47.692;9.400;2023-03-13T04:01:31;96184.25;;;5.61;100.00
28927;BME280;16038;47.692;9.400;2023-03-13T04:03:56;96182.38;;;5.49;100.00
28927;BME280;16038;47.692;9.400;2023-03-13T04:06:21;96172.66;;;5.48;100.00
28927;BME280;16038;47.692;9.400;2023-03-13T04:08:47;96181.44;;;5.57;100.00
28927;BME280;16038;47.692;9.400;2023-03-13T04:11:12;96171.28;;;5.70;100.00
28927;BME280;16038;47.692;9.400;2023-03-13T04:13:38;96183.91;;;5.62;100.00
28927;BME280;16038;47.692;9.400;2023-03-13T04:16:07;96174.16;;;5.61;100.00
28927;BME280;16038;47.692;9.400;2023-03-13T04:18:32;96162.06;;;5.59;100.00
28927;BME280;16038;47.692;9.400;2023-03-13T04:21:01;96167.06;;;5.57;100.00
28927;BME280;16038;47.692;9.400;2023-03-13T04:23:26;96165.66;;;5.63;100.00
28927;BME280;16038;47.692;9.400;2023-03-13T04:25:51;96164.44;;;5.60;100.00
28927;BME280;16038;47.692;9.400;2023-03-13T04:28:17;96167.06;;;5.57;100.00
28927;BME280;16038;47.692;9.400;2023-03-13T04:30:42;96169.88;;;5.60;100.00
28927;BME280;16038;47.692;9.400;2023-03-13T04:33:07;96166.50;;;5.51;100.00
28927;BME280;16038;47.692;9.400;2023-03-13T04:35:32;96155.94;;;5.62;100.00
28927;BME280;16038;47.692;9.400;2023-03-13T04:37:58;96157.47;;;5.75;100.00
28927;BME280;16038;47.692;9.400;2023-03-13T04:40:25;96148.06;;;5.72;100.00
28927;BME280;16038;47.692;9.400;2023-03-13T04:42:50;96152.03;;;5.75;100.00
28927;BME280;16038;47.692;9.400;2023-03-13T04:45:15;96148.72;;;5.82;100.00
28927;BME280;16038;47.692;9.400;2023-03-13T04:47:41;96155.53;;;5.75;100.00
28927;BME280;16038;47.692;9.400;2023-03-13T04:50:06;96153.41;;;5.69;100.00
28927;BME280;16038;47.692;9.400;2023-03-13T04:52:31;96156.41;;;5.64;100.00
28927;BME280;16038;47.692;9.400;2023-03-13T04:54:57;96156.66;;;5.59;100.00
28927;BME280;16038;47.692;9.400;2023-03-13T04:57:22;96155.63;;;5.51;100.00
28927;BME280;16038;47.692;9.400;2023-03-13T04:59:47;96152.47;;;5.49;100.00
28927;BME280;16038;47.692;9.400;2023-03-13T05:02:12;96152.13;;;5.50;100.00
28927;BME280;16038;47.692;9.400;2023-03-13T05:04:38;96143.59;;;5.36;100.00
28927;BME280;16038;47.692;9.400;2023-03-13T05:07:03;96170.84;;;5.40;100.00
28927;BME280;16038;47.692;9.400;2023-03-13T05:09:28;96156.53;;;5.55;100.00
28927;BME280;16038;47.692;9.400;2023-03-13T05:11:54;96144.97;;;5.58;100.00
28927;BME280;16038;47.692;9.400;2023-03-13T05:14:19;96144.97;;;5.58;100.00
28927;BME280;16038;47.692;9.400;2023-03-13T05:16:44;96145.25;;;5.53;100.00
28927;BME280;16038;47.692;9.400;2023-03-13T05:19:09;96141.31;;;5.38;100.00
28927;BME280;16038;47.692;9.400;2023-03-13T05:21:35;96138.84;;;5.33;100.00
28927;BME280;16038;47.692;9.400;2023-03-13T05:24:00;96138.84;;;5.33;100.00
28927;BME280;16038;47.692;9.400;2023-03-13T05:26:25;96141.44;;;5.42;100.00
28927;BME280;16038;47.692;9.400;2023-03-13T05:28:50;96146.22;;;5.61;100.00
28927;BME280;16038;47.692;9.400;2023-03-13T05:31:16;96128.66;;;6.02;100.00
28927;BME280;16038;47.692;9.400;2023-03-13T05:33:41;96137.44;;;6.11;100.00
28927;BME280;16038;47.692;9.400;2023-03-13T05:36:07;96129.72;;;6.13;100.00
28927;BME280;16038;47.692;9.400;2023-03-13T05:38:32;96133.53;;;6.44;100.00
28927;BME280;16038;47.692;9.400;2023-03-13T05:40:57;96141.78;;;6.48;100.00
28927;BME280;16038;47.692;9.400;2023-03-13T05:43:23;96136.56;;;6.39;100.00
28927;BME280;16038;47.692;9.400;2023-03-13T05:45:48;96143.13;;;6.38;100.00
28927;BME280;16038;47.692;9.400;2023-03-13T05:48:13;96142.09;;;6.27;100.00
28927;BME280;16038;47.692;9.400;2023-03-13T05:50:38;96145.69;;;6.15;100.00
28927;BME280;16038;47.692;9.400;2023-03-13T05:53:04;96149.81;;;6.25;100.00
28927;BME280;16038;47.692;9.400;2023-03-13T05:55:29;96148.31;;;6.27;100.00
28927;BME280;16038;47.692;9.400;2023-03-13T05:57:54;96145.25;;;6.29;100.00
28927;BME280;16038;47.692;9.400;2023-03-13T06:00:20;96136.22;;;6.25;100.00
28927;BME280;16038;47.692;9.400;2023-03-13T06:02:45;96134.97;;;6.22;100.00
28927;BME280;16038;47.692;9.400;2023-03-13T06:05:10;96133.16;;;6.10;100.00
28927;BME280;16038;47.692;9.400;2023-03-13T06:07:36;96136.38;;;6.16;100.00
28927;BME280;16038;47.692;9.400;2023-03-13T06:10:02;96134.88;;;6.19;100.00
28927;BME280;16038;47.692;9.400;2023-03-13T06:12:28;96139.03;;;6.28;100.00
28927;BME280;16038;47.692;9.400;2023-03-13T06:14:53;96131.22;;;6.27;100.00
28927;BME280;16038;47.692;9.400;2023-03-13T06:17:18;96141.09;;;6.35;100.00
28927;BME280;16038;47.692;9.400;2023-03-13T06:19:45;96136.31;;;6.28;100.00
28927;BME280;16038;47.692;9.400;2023-03-13T06:22:10;96135.13;;;6.29;100.00
28927;BME280;16038;47.692;9.400;2023-03-13T06:24:35;96133.03;;;6.39;100.00
28927;BME280;16038;47.692;9.400;2023-03-13T06:27:01;96128.00;;;6.41;100.00
28927;BME280;16038;47.692;9.400;2023-03-13T06:29:26;96142.50;;;6.45;100.00
28927;BME280;16038;47.692;9.400;2023-03-13T06:31:51;96133.03;;;6.23;100.00
28927;BME280;16038;47.692;9.400;2023-03-13T06:34:17;96128.31;;;6.04;100.00
28927;BME280;16038;47.692;9.400;2023-03-13T06:36:42;96129.88;;;6.05;100.00
28927;BME280;16038;47.692;9.400;2023-03-13T06:39:08;96133.94;;;6.11;100.00
28927;BME280;16038;47.692;9.400;2023-03-13T06:41:34;96131.22;;;6.27;100.00
28927;BME280;16038;47.692;9.400;2023-03-13T06:43:59;96136.91;;;6.38;100.00
28927;BME280;16038;47.692;9.400;2023-03-13T06:46:24;96131.19;;;6.43;100.00
28927;BME280;16038;47.692;9.400;2023-03-13T06:48:50;96129.94;;;6.40;100.00
28927;BME280;16038;47.692;9.400;2023-03-13T06:51:16;96127.91;;;6.53;100.00
28927;BME280;16038;47.692;9.400;2023-03-13T06:53:42;96131.53;;;6.57;100.00
28927;BME280;16038;47.692;9.400;2023-03-13T06:56:08;96128.84;;;6.61;100.00
28927;BME280;16038;47.692;9.400;2023-03-13T06:58:33;96135.34;;;6.72;100.00
28927;BME280;16038;47.692;9.400;2023-03-13T07:00:59;96125.63;;;6.91;100.00
28927;BME280;16038;47.692;9.400;2023-03-13T07:03:29;96136.63;;;7.14;100.00
28927;BME280;16038;47.692;9.400;2023-03-13T07:05:55;96123.50;;;7.19;100.00
28927;BME280;16038;47.692;9.400;2023-03-13T07:08:21;96123.13;;;7.21;100.00
28927;BME280;16038;47.692;9.400;2023-03-13T07:10:46;96126.84;;;7.32;100.00
28927;BME280;16038;47.692;9.400;2023-03-13T07:13:15;96122.19;;;7.33;100.00
28927;BME280;16038;47.692;9.400;2023-03-13T07:15:40;96121.69;;;7.46;100.00
28927;BME280;16038;47.692;9.400;2023-03-13T07:18:05;96116.00;;;7.55;100.00
28927;BME280;16038;47.692;9.400;2023-03-13T07:20:31;96123.59;;;7.65;100.00
28927;BME280;16038;47.692;9.400;2023-03-13T07:22:56;96113.53;;;7.70;100.00
28927;BME280;16038;47.692;9.400;2023-03-13T07:25:21;96118.34;;;7.76;100.00
28927;BME280;16038;47.692;9.400;2023-03-13T07:27:49;96114.47;;;8.00;100.00
28927;BME280;16038;47.692;9.400;2023-03-13T07:30:15;96109.25;;;8.15;100.00
28927;BME280;16038;47.692;9.400;2023-03-13T07:32:41;96100.50;;;8.29;100.00
28927;BME280;16038;47.692;9.400;2023-03-13T07:35:06;96105.91;;;8.48;100.00
28927;BME280;16038;47.692;9.400;2023-03-13T07:37:32;96092.78;;;8.57;100.00
28927;BME280;16038;47.692;9.400;2023-03-13T07:39:57;96090.66;;;8.74;100.00
28927;BME280;16038;47.692;9.400;2023-03-13T07:42:22;96093.81;;;8.76;100.00
28927;BME280;16038;47.692;9.400;2023-03-13T07:44:47;96089.97;;;8.80;100.00
28927;BME280;16038;47.692;9.400;2023-03-13T07:47:13;96099.78;;;9.15;100.00
28927;BME280;16038;47.692;9.400;2023-03-13T07:49:38;96102.50;;;9.49;100.00
28927;BME280;16038;47.692;9.400;2023-03-13T07:52:07;96107.25;;;9.93;100.00
28927;BME280;16038;47.692;9.400;2023-03-13T07:54:33;96106.81;;;10.32;100.00
28927;BME280;16038;47.692;9.400;2023-03-13T07:56:58;96108.97;;;10.57;100.00
28927;BME280;16038;47.692;9.400;2023-03-13T07:59:23;96104.31;;;10.17;100.00
28927;BME280;16038;47.692;9.400;2023-03-13T08:01:49;96110.72;;;10.31;98.54
28927;BME280;16038;47.692;9.400;2023-03-13T08:04:14;96106.56;;;11.15;95.29
28927;BME280;16038;47.692;9.400;2023-03-13T08:06:40;96100.44;;;11.68;89.59
28927;BME280;16038;47.692;9.400;2023-03-13T08:09:06;96109.53;;;11.94;87.23
28927;BME280;16038;47.692;9.400;2023-03-13T08:11:31;96109.13;;;11.88;82.57
28927;BME280;16038;47.692;9.400;2023-03-13T08:13:57;96111.91;;;12.02;77.72
28927;BME280;16038;47.692;9.400;2023-03-13T08:16:27;96105.97;;;11.82;78.08
28927;BME280;16038;47.692;9.400;2023-03-13T08:18:57;96109.06;;;11.70;75.13
28927;BME280;16038;47.692;9.400;2023-03-13T08:21:24;96109.16;;;11.92;72.66
28927;BME280;16038;47.692;9.400;2023-03-13T08:23:56;96111.16;;;12.23;69.50
28927;BME280;16038;47.692;9.400;2023-03-13T08:26:23;96100.53;;;12.08;69.43
28927;BME280;16038;47.692;9.400;2023-03-13T08:28:51;96106.78;;;11.83;70.40
28927;BME280;16038;47.692;9.400;2023-03-13T08:31:17;96106.41;;;11.92;70.47
28927;BME280;16038;47.692;9.400;2023-03-13T08:33:43;96102.84;;;11.80;71.09
28927;BME280;16038;47.692;9.400;2023-03-13T08:36:32;96100.56;;;12.47;68.01
28927;BME280;16038;47.692;9.400;2023-03-13T08:38:56;96094.16;;;13.96;61.95
28927;BME280;16038;47.692;9.400;2023-03-13T08:41:23;96098.34;;;14.64;59.38
28927;BME280;16038;47.692;9.400;2023-03-13T08:43:50;96095.47;;;15.51;53.80
28927;BME280;16038;47.692;9.400;2023-03-13T08:46:15;96083.81;;;15.01;53.20
28927;BME280;16038;47.692;9.400;2023-03-13T08:48:41;96085.28;;;15.44;53.59
28927;BME280;16038;47.692;9.400;2023-03-13T08:51:10;96084.34;;;15.58;52.90
28927;BME280;16038;47.692;9.400;2023-03-13T08:53:36;96092.09;;;15.97;50.66
28927;BME280;16038;47.692;9.400;2023-03-13T08:56:02;96089.06;;;16.15;49.96
28927;BME280;16038;47.692;9.400;2023-03-13T08:58:28;96079.00;;;16.01;50.16
28927;BME280;16038;47.692;9.400;2023-03-13T09:00:53;96082.94;;;15.42;52.07
28927;BME280;16038;47.692;9.400;2023-03-13T09:03:19;96074.63;;;14.77;53.92
28927;BME280;16038;47.692;9.400;2023-03-13T09:05:44;96090.56;;;14.59;55.15
28927;BME280;16038;47.692;9.400;2023-03-13T09:08:12;96083.81;;;14.63;55.47
28927;BME280;16038;47.692;9.400;2023-03-13T09:10:37;96086.50;;;14.70;55.20
28927;BME280;16038;47.692;9.400;2023-03-13T09:13:02;96078.97;;;15.13;55.30
28927;BME280;16038;47.692;9.400;2023-03-13T09:15:28;96078.44;;;15.21;53.40
28927;BME280;16038;47.692;9.400;2023-03-13T09:17:53;96075.50;;;15.70;51.62
28927;BME280;16038;47.692;9.400;2023-03-13T09:20:18;96077.03;;;15.75;49.40
28927;BME280;16038;47.692;9.400;2023-03-13T09:22:44;96068.53;;;15.58;50.07
28927;BME280;16038;47.692;9.400;2023-03-13T09:25:09;96062.16;;;15.34;49.98
28927;BME280;16038;47.692;9.400;2023-03-13T09:27:35;96053.09;;;16.19;50.16
28927;BME280;16038;47.692;9.400;2023-03-13T09:30:00;96061.69;;;16.72;49.30
28927;BME280;16038;47.692;9.400;2023-03-13T09:32:25;96049.94;;;18.04;46.96
28927;BME280;16038;47.692;9.400;2023-03-13T09:34:53;96044.88;;;18.48;43.64
28927;BME280;16038;47.692;9.400;2023-03-13T09:37:20;96052.25;;;18.55;44.37
28927;BME280;16038;47.692;9.400;2023-03-13T09:39:45;96044.16;;;19.36;42.46
28927;BME280;16038;47.692;9.400;2023-03-13T09:42:17;96045.19;;;18.67;43.51
28927;BME280;16038;47.692;9.400;2023-03-13T09:45:05;96036.78;;;19.16;42.08
28927;BME280;16038;47.692;9.400;2023-03-13T09:47:43;96036.63;;;19.49;42.12
28927;BME280;16038;47.692;9.400;2023-03-13T09:50:14;96024.59;;;19.81;41.89
28927;BME280;16038;47.692;9.400;2023-03-13T09:52:42;96024.03;;;20.60;40.48
28927;BME280;16038;47.692;9.400;2023-03-13T09:55:20;96013.03;;;20.91;39.18
28927;BME280;16038;47.692;9.400;2023-03-13T10:00:17;96007.91;;;19.81;41.58
28927;BME280;16038;47.692;9.400;2023-03-13T10:03:04;95990.66;;;20.12;41.01
28927;BME280;16038;47.692;9.400;2023-03-13T10:05:32;95985.16;;;19.19;42.62
28927;BME280;16038;47.692;9.400;2023-03-13T10:08:00;95989.09;;;19.60;42.26
28927;BME280;16038;47.692;9.400;2023-03-13T10:10:34;95981.56;;;19.99;41.72
28927;BME280;16038;47.692;9.400;2023-03-13T10:13:09;95978.53;;;19.42;42.48
28927;BME280;16038;47.692;9.400;2023-03-13T10:15:50;95980.31;;;18.94;43.52
28927;BME280;16038;47.692;9.400;2023-03-13T10:18:20;95984.84;;;19.42;41.92
28927;BME280;16038;47.692;9.400;2023-03-13T10:20:47;95981.72;;;19.27;42.73
28927;BME280;16038;47.692;9.400;2023-03-13T10:25:45;95968.25;;;19.13;42.59
28927;BME280;16038;47.692;9.400;2023-03-13T10:28:11;95966.22;;;19.81;42.12
28927;BME280;16038;47.692;9.400;2023-03-13T10:30:37;95966.97;;;20.08;40.55
28927;BME280;16038;47.692;9.400;2023-03-13T10:35:39;95956.69;;;20.30;39.48
28927;BME280;16038;47.692;9.400;2023-03-13T10:38:08;95958.09;;;20.48;39.80
28927;BME280;16038;47.692;9.400;2023-03-13T10:40:34;95947.84;;;20.10;40.21
28927;BME280;16038;47.692;9.400;2023-03-13T10:43:02;95949.28;;;20.14;41.04
28927;BME280;16038;47.692;9.400;2023-03-13T10:45:32;95943.47;;;19.74;40.56
28927;BME280;16038;47.692;9.400;2023-03-13T10:48:00;95936.97;;;19.90;41.04
28927;BME280;16038;47.692;9.400;2023-03-13T10:50:27;95922.53;;;19.82;42.05
28927;BME280;16038;47.692;9.400;2023-03-13T10:52:56;95920.00;;;19.36;42.21
28927;BME280;16038;47.692;9.400;2023-03-13T10:55:22;95919.56;;;19.38;42.57
28927;BME280;16038;47.692;9.400;2023-03-13T11:00:35;95906.63;;;18.93;42.92
28927;BME280;16038;47.692;9.400;2023-03-13T11:03:04;95905.75;;;19.08;43.36
28927;BME280;16038;47.692;9.400;2023-03-13T11:05:32;95902.41;;;19.14;43.83
28927;BME280;16038;47.692;9.400;2023-03-13T11:07:58;95891.66;;;19.03;43.66
28927;BME280;16038;47.692;9.400;2023-03-13T11:10:34;95885.09;;;18.97;44.68
28927;BME280;16038;47.692;9.400;2023-03-13T11:13:01;95876.78;;;18.97;44.94
28927;BME280;16038;47.692;9.400;2023-03-13T11:15:28;95883.34;;;19.28;44.97
28927;BME280;16038;47.692;9.400;2023-03-13T11:17:58;95877.13;;;19.50;44.36
28927;BME280;16038;47.692;9.400;2023-03-13T11:20:28;95865.66;;;19.48;44.63
28927;BME280;16038;47.692;9.400;2023-03-13T11:25:41;95864.84;;;19.86;43.70
28927;BME280;16038;47.692;9.400;2023-03-13T11:28:16;95862.50;;;19.97;43.73
28927;BME280;16038;47.692;9.400;2023-03-13T11:33:27;95838.00;;;19.57;44.71
28927;BME280;16038;47.692;9.400;2023-03-13T11:35:59;95835.25;;;20.27;43.28
28927;BME280;16038;47.692;9.400;2023-03-13T11:41:03;95818.44;;;20.31;42.95
28927;BME280;16038;47.692;9.400;2023-03-13T11:43:42;95816.47;;;20.85;42.66
28927;BME280;16038;47.692;9.400;2023-03-13T11:46:21;95806.41;;;20.78;42.29
28927;BME280;16038;47.692;9.400;2023-03-13T11:54:08;95799.56;;;21.51;40.33
28927;BME280;16038;47.692;9.400;2023-03-13T12:04:33;95803.00;;;20.83;42.10
28927;BME280;16038;47.692;9.400;2023-03-13T12:07:48;95798.59;;;20.64;41.79
28927;BME280;16038;47.692;9.400;2023-03-13T12:12:17;95789.41;;;20.32;42.71
28927;BME280;16038;47.692;9.400;2023-03-13T12:14:51;95776.88;;;20.05;43.46
28927;BME280;16038;47.692;9.400;2023-03-13T12:17:23;95771.03;;;20.56;42.29
28927;BME280;16038;47.692;9.400;2023-03-13T12:19:54;95762.16;;;20.71;42.32
28927;BME280;16038;47.692;9.400;2023-03-13T12:22:27;95750.41;;;20.44;42.61
28927;BME280;16038;47.692;9.400;2023-03-13T12:25:00;95728.25;;;20.63;42.82
28927;BME280;16038;47.692;9.400;2023-03-13T12:27:28;95730.31;;;19.96;44.46
28927;BME280;16038;47.692;9.400;2023-03-13T12:30:00;95724.09;;;19.70;45.37
28927;BME280;16038;47.692;9.400;2023-03-13T12:34:59;95713.38;;;20.57;43.44
28927;BME280;16038;47.692;9.400;2023-03-13T12:37:30;95703.56;;;20.12;44.86
28927;BME280;16038;47.692;9.400;2023-03-13T12:40:31;95692.06;;;20.22;44.34
28927;BME280;16038;47.692;9.400;2023-03-13T12:42:52;95677.94;;;19.51;45.62
28927;BME280;16038;47.692;9.400;2023-03-13T12:45:20;95685.50;;;19.50;46.52
28927;BME280;16038;47.692;9.400;2023-03-13T12:48:00;95672.97;;;19.45;46.55
28927;BME280;16038;47.692;9.400;2023-03-13T12:58:24;95649.22;;;19.89;44.96
28927;BME280;16038;47.692;9.400;2023-03-13T13:00:50;95643.91;;;20.03;44.74
28927;BME280;16038;47.692;9.400;2023-03-13T13:08:26;95619.00;;;19.46;46.11
28927;BME280;16038;47.692;9.400;2023-03-13T13:11:08;95601.47;;;19.59;46.63
28927;BME280;16038;47.692;9.400;2023-03-13T13:13:40;95601.03;;;19.60;45.91
28927;BME280;16038;47.692;9.400;2023-03-13T13:16:05;95596.53;;;19.54;46.49
28927;BME280;16038;47.692;9.400;2023-03-13T13:18:32;95589.59;;;19.58;46.53
28927;BME280;16038;47.692;9.400;2023-03-13T13:23:27;95586.69;;;19.62;47.16
28927;BME280;16038;47.692;9.400;2023-03-13T13:26:35;95575.97;;;19.73;46.66
28927;BME280;16038;47.692;9.400;2023-03-13T13:28:42;95549.75;;;19.52;47.59
28927;BME280;16038;47.692;9.400;2023-03-13T13:33:52;95537.63;;;19.15;48.19
28927;BME280;16038;47.692;9.400;2023-03-13T13:36:24;95533.25;;;19.04;47.92
28927;BME280;16038;47.692;9.400;2023-03-13T13:38:50;95532.09;;;18.93;48.53
28927;BME280;16038;47.692;9.400;2023-03-13T13:43:41;95533.31;;;18.31;49.63
28927;BME280;16038;47.692;9.400;2023-03-13T13:48:37;95521.56;;;18.40;49.87
28927;BME280;16038;47.692;9.400;2023-03-13T13:51:25;95515.94;;;18.65;49.86
28927;BME280;16038;47.692;9.400;2023-03-13T13:53:50;95505.56;;;18.91;47.83
28927;BME280;16038;47.692;9.400;2023-03-13T13:59:01;95493.63;;;18.82;48.88
28927;BME280;16038;47.692;9.400;2023-03-13T14:01:27;95494.84;;;18.68;48.35
28927;BME280;16038;47.692;9.400;2023-03-13T14:04:03;95488.31;;;18.62;48.93
28927;BME280;16038;47.692;9.400;2023-03-13T14:06:30;95474.31;;;18.43;48.37
28927;BME280;16038;47.692;9.400;2023-03-13T14:09:11;95472.84;;;18.51;48.72